Meadow Bluff, West Virginia
Current Conditions -  °F | °C
As of 6:15 PM on Thursday 27 Nov 2014 (Local Time) from KLWB Reporting Station
Light Snow Light Snow  
Wind Chill: 23°   Ceiling: 3500
Heat Index: 30°   Visibility: 10mi
Dew Point: 22°   Wind: 8mph
Humidity: 72%   Direction: 280°W
Pressure: 30.17"   Gusts: NA
Location:  37.9°N, 80.65°W
Report Text: KLWB 272315Z AUTO 28007KT 10SM -SN BKN035 OVC040 M01/M05 A3017 RMK AO2 T10091054
Loading
Personal Weather Stations






























Interactive Weather Map New forecast layout! Learn more

10-Day Weather Forecast

Advertisements
Track Severe Weather on mobile